<?xml version="1.0" encoding="UTF-8" standalone="no" ?>
<gpx xmlns="http://www.topografix.com/GPX/1/1" xmlns:xsi="http://www.w3.org/2001/XMLSchema-instance" xsi:schemaLocation="http://www.topografix.com/GPX/1/1 http://www.topografix.com/GPX/1/1/gpx.xsd" version="1.1" creator="VisuGPX - https://www.visugpx.com">
  <metadata>
    <name>PLM2018 J2 draft HW</name>
    <desc><![CDATA[PLM2018 J2 draft HW prévisionel pour test sur le terrian]]></desc>
  </metadata>
  <trk>
    <name><![CDATA[8156697-Vernon - Saint-Ouen-du-Tilleul]]></name>
    <trkseg>
      <trkpt lat="49.09525" lon="1.42752">
        <ele>140</ele>
        <time>2018-03-15T19:22:07Z</time>
      </trkpt>
      <trkpt lat="49.09478" lon="1.42797">
        <ele>140</ele>
        <time>2018-03-15T19:23:07Z</time>
      </trkpt>
      <trkpt lat="49.09539" lon="1.42921">
        <ele>139</ele>
        <time>2018-03-15T19:24:07Z</time>
      </trkpt>
      <trkpt lat="49.09551" lon="1.42981">
        <ele>138</ele>
        <time>2018-03-15T19:25:07Z</time>
      </trkpt>
      <trkpt lat="49.09531" lon="1.43005">
        <ele>137</ele>
        <time>2018-03-15T19:26:07Z</time>
      </trkpt>
      <trkpt lat="49.09544" lon="1.43046">
        <ele>136</ele>
        <time>2018-03-15T19:27:07Z</time>
      </trkpt>
      <trkpt lat="49.09576" lon="1.43037">
        <ele>136</ele>
        <time>2018-03-15T19:28:07Z</time>
      </trkpt>
      <trkpt lat="49.09584" lon="1.42996">
        <ele>137</ele>
        <time>2018-03-15T19:29:07Z</time>
      </trkpt>
      <trkpt lat="49.0968" lon="1.42981">
        <ele>137</ele>
        <time>2018-03-15T19:30:07Z</time>
      </trkpt>
      <trkpt lat="49.0986" lon="1.42956">
        <ele>136</ele>
        <time>2018-03-15T19:31:07Z</time>
      </trkpt>
      <trkpt lat="49.09999" lon="1.42908">
        <ele>138</ele>
        <time>2018-03-15T19:32:07Z</time>
      </trkpt>
      <trkpt lat="49.10242" lon="1.42762">
        <ele>140</ele>
        <time>2018-03-15T19:33:07Z</time>
      </trkpt>
      <trkpt lat="49.10371" lon="1.41786">
        <ele>141</ele>
        <time>2018-03-15T19:34:07Z</time>
      </trkpt>
      <trkpt lat="49.10681" lon="1.4086">
        <ele>137</ele>
        <time>2018-03-15T19:35:07Z</time>
      </trkpt>
      <trkpt lat="49.10437" lon="1.40205">
        <ele>128</ele>
        <time>2018-03-15T19:36:07Z</time>
      </trkpt>
      <trkpt lat="49.10411" lon="1.40029">
        <ele>129</ele>
        <time>2018-03-15T19:37:07Z</time>
      </trkpt>
      <trkpt lat="49.10437" lon="1.39831">
        <ele>129</ele>
        <time>2018-03-15T19:38:07Z</time>
      </trkpt>
      <trkpt lat="49.1048" lon="1.394">
        <ele>129</ele>
        <time>2018-03-15T19:39:07Z</time>
      </trkpt>
      <trkpt lat="49.10455" lon="1.39227">
        <ele>127</ele>
        <time>2018-03-15T19:40:07Z</time>
      </trkpt>
      <trkpt lat="49.10528" lon="1.39103">
        <ele>123</ele>
        <time>2018-03-15T19:41:07Z</time>
      </trkpt>
      <trkpt lat="49.10584" lon="1.38921">
        <ele>125</ele>
        <time>2018-03-15T19:42:07Z</time>
      </trkpt>
      <trkpt lat="49.10651" lon="1.38809">
        <ele>119</ele>
        <time>2018-03-15T19:43:07Z</time>
      </trkpt>
      <trkpt lat="49.10789" lon="1.38736">
        <ele>100</ele>
        <time>2018-03-15T19:44:07Z</time>
      </trkpt>
      <trkpt lat="49.10825" lon="1.38845">
        <ele>96</ele>
        <time>2018-03-15T19:45:07Z</time>
      </trkpt>
      <trkpt lat="49.10857" lon="1.38872">
        <ele>94</ele>
        <time>2018-03-15T19:46:07Z</time>
      </trkpt>
      <trkpt lat="49.10933" lon="1.38878">
        <ele>90</ele>
        <time>2018-03-15T19:47:07Z</time>
      </trkpt>
      <trkpt lat="49.11233" lon="1.39006">
        <ele>60</ele>
        <time>2018-03-15T19:48:07Z</time>
      </trkpt>
      <trkpt lat="49.11272" lon="1.39006">
        <ele>60</ele>
        <time>2018-03-15T19:49:07Z</time>
      </trkpt>
      <trkpt lat="49.11273" lon="1.38888">
        <ele>64</ele>
        <time>2018-03-15T19:50:07Z</time>
      </trkpt>
      <trkpt lat="49.1131" lon="1.38969">
        <ele>63</ele>
        <time>2018-03-15T19:51:07Z</time>
      </trkpt>
      <trkpt lat="49.11341" lon="1.38927">
        <ele>68</ele>
        <time>2018-03-15T19:52:07Z</time>
      </trkpt>
      <trkpt lat="49.11425" lon="1.38723">
        <ele>85</ele>
        <time>2018-03-15T19:53:07Z</time>
      </trkpt>
      <trkpt lat="49.11486" lon="1.38463">
        <ele>104</ele>
        <time>2018-03-15T19:54:07Z</time>
      </trkpt>
      <trkpt lat="49.11469" lon="1.38435">
        <ele>105</ele>
        <time>2018-03-15T19:55:07Z</time>
      </trkpt>
      <trkpt lat="49.11497" lon="1.38288">
        <ele>115</ele>
        <time>2018-03-15T19:56:07Z</time>
      </trkpt>
      <trkpt lat="49.11477" lon="1.38257">
        <ele>115</ele>
        <time>2018-03-15T19:57:07Z</time>
      </trkpt>
      <trkpt lat="49.11564" lon="1.37887">
        <ele>120</ele>
        <time>2018-03-15T19:58:07Z</time>
      </trkpt>
      <trkpt lat="49.11572" lon="1.37802">
        <ele>122</ele>
        <time>2018-03-15T19:59:07Z</time>
      </trkpt>
      <trkpt lat="49.11602" lon="1.37705">
        <ele>124</ele>
        <time>2018-03-15T20:00:07Z</time>
      </trkpt>
      <trkpt lat="49.11592" lon="1.37675">
        <ele>125</ele>
        <time>2018-03-15T20:01:07Z</time>
      </trkpt>
      <trkpt lat="49.11651" lon="1.37571">
        <ele>125</ele>
        <time>2018-03-15T20:02:07Z</time>
      </trkpt>
      <trkpt lat="49.11643" lon="1.37489">
        <ele>125</ele>
        <time>2018-03-15T20:03:07Z</time>
      </trkpt>
      <trkpt lat="49.11672" lon="1.374">
        <ele>126</ele>
        <time>2018-03-15T20:04:07Z</time>
      </trkpt>
      <trkpt lat="49.11886" lon="1.37077">
        <ele>128</ele>
        <time>2018-03-15T20:05:07Z</time>
      </trkpt>
      <trkpt lat="49.11892" lon="1.37002">
        <ele>129</ele>
        <time>2018-03-15T20:06:07Z</time>
      </trkpt>
      <trkpt lat="49.11924" lon="1.37018">
        <ele>130</ele>
        <time>2018-03-15T20:07:07Z</time>
      </trkpt>
      <trkpt lat="49.12727" lon="1.36852">
        <ele>126</ele>
        <time>2018-03-15T20:08:07Z</time>
      </trkpt>
      <trkpt lat="49.1262" lon="1.36027">
        <ele>132</ele>
        <time>2018-03-15T20:09:07Z</time>
      </trkpt>
      <trkpt lat="49.12739" lon="1.35731">
        <ele>129</ele>
        <time>2018-03-15T20:10:07Z</time>
      </trkpt>
      <trkpt lat="49.12801" lon="1.35374">
        <ele>127</ele>
        <time>2018-03-15T20:11:07Z</time>
      </trkpt>
      <trkpt lat="49.12716" lon="1.3432">
        <ele>130</ele>
        <time>2018-03-15T20:12:07Z</time>
      </trkpt>
      <trkpt lat="49.12817" lon="1.34093">
        <ele>130</ele>
        <time>2018-03-15T20:13:07Z</time>
      </trkpt>
      <trkpt lat="49.12125" lon="1.33274">
        <ele>135</ele>
        <time>2018-03-15T20:14:07Z</time>
      </trkpt>
      <trkpt lat="49.12367" lon="1.33061">
        <ele>135</ele>
        <time>2018-03-15T20:15:07Z</time>
      </trkpt>
      <trkpt lat="49.1255" lon="1.32979">
        <ele>135</ele>
        <time>2018-03-15T20:16:07Z</time>
      </trkpt>
      <trkpt lat="49.12564" lon="1.32782">
        <ele>136</ele>
        <time>2018-03-15T20:17:07Z</time>
      </trkpt>
      <trkpt lat="49.12471" lon="1.32794">
        <ele>137</ele>
        <time>2018-03-15T20:18:07Z</time>
      </trkpt>
      <trkpt lat="49.12379" lon="1.32755">
        <ele>137</ele>
        <time>2018-03-15T20:19:07Z</time>
      </trkpt>
      <trkpt lat="49.12312" lon="1.32554">
        <ele>136</ele>
        <time>2018-03-15T20:20:07Z</time>
      </trkpt>
      <trkpt lat="49.12657" lon="1.31341">
        <ele>136</ele>
        <time>2018-03-15T20:21:07Z</time>
      </trkpt>
      <trkpt lat="49.1265" lon="1.31043">
        <ele>134</ele>
        <time>2018-03-15T20:22:07Z</time>
      </trkpt>
      <trkpt lat="49.12634" lon="1.30967">
        <ele>134</ele>
        <time>2018-03-15T20:23:07Z</time>
      </trkpt>
      <trkpt lat="49.12642" lon="1.3092">
        <ele>135</ele>
        <time>2018-03-15T20:24:07Z</time>
      </trkpt>
      <trkpt lat="49.12602" lon="1.30844">
        <ele>139</ele>
        <time>2018-03-15T20:25:07Z</time>
      </trkpt>
      <trkpt lat="49.12591" lon="1.30635">
        <ele>140</ele>
        <time>2018-03-15T20:26:07Z</time>
      </trkpt>
      <trkpt lat="49.12632" lon="1.30511">
        <ele>133</ele>
        <time>2018-03-15T20:27:07Z</time>
      </trkpt>
      <trkpt lat="49.12651" lon="1.30331">
        <ele>125</ele>
        <time>2018-03-15T20:28:07Z</time>
      </trkpt>
      <trkpt lat="49.12667" lon="1.30333">
        <ele>125</ele>
        <time>2018-03-15T20:29:07Z</time>
      </trkpt>
      <trkpt lat="49.12681" lon="1.30232">
        <ele>115</ele>
        <time>2018-03-15T20:30:07Z</time>
      </trkpt>
      <trkpt lat="49.12697" lon="1.30158">
        <ele>105</ele>
        <time>2018-03-15T20:31:07Z</time>
      </trkpt>
      <trkpt lat="49.12696" lon="1.30094">
        <ele>100</ele>
        <time>2018-03-15T20:32:07Z</time>
      </trkpt>
      <trkpt lat="49.1267" lon="1.30044">
        <ele>98</ele>
        <time>2018-03-15T20:33:07Z</time>
      </trkpt>
      <trkpt lat="49.12699" lon="1.30038">
        <ele>97</ele>
        <time>2018-03-15T20:34:07Z</time>
      </trkpt>
      <trkpt lat="49.12853" lon="1.29734">
        <ele>117</ele>
        <time>2018-03-15T20:35:07Z</time>
      </trkpt>
      <trkpt lat="49.12876" lon="1.29672">
        <ele>117</ele>
        <time>2018-03-15T20:36:07Z</time>
      </trkpt>
      <trkpt lat="49.12894" lon="1.29643">
        <ele>118</ele>
        <time>2018-03-15T20:37:07Z</time>
      </trkpt>
      <trkpt lat="49.129" lon="1.29611">
        <ele>119</ele>
        <time>2018-03-15T20:38:07Z</time>
      </trkpt>
      <trkpt lat="49.12953" lon="1.29491">
        <ele>125</ele>
        <time>2018-03-15T20:39:07Z</time>
      </trkpt>
      <trkpt lat="49.12993" lon="1.29432">
        <ele>128</ele>
        <time>2018-03-15T20:40:07Z</time>
      </trkpt>
      <trkpt lat="49.13039" lon="1.29406">
        <ele>132</ele>
        <time>2018-03-15T20:41:07Z</time>
      </trkpt>
      <trkpt lat="49.13158" lon="1.29281">
        <ele>137</ele>
        <time>2018-03-15T20:42:07Z</time>
      </trkpt>
      <trkpt lat="49.13177" lon="1.29242">
        <ele>137</ele>
        <time>2018-03-15T20:43:07Z</time>
      </trkpt>
      <trkpt lat="49.13235" lon="1.29164">
        <ele>134</ele>
        <time>2018-03-15T20:44:07Z</time>
      </trkpt>
      <trkpt lat="49.13239" lon="1.29107">
        <ele>133</ele>
        <time>2018-03-15T20:45:07Z</time>
      </trkpt>
      <trkpt lat="49.13259" lon="1.29072">
        <ele>133</ele>
        <time>2018-03-15T20:46:07Z</time>
      </trkpt>
      <trkpt lat="49.13347" lon="1.28974">
        <ele>136</ele>
        <time>2018-03-15T20:47:07Z</time>
      </trkpt>
      <trkpt lat="49.13477" lon="1.28803">
        <ele>139</ele>
        <time>2018-03-15T20:48:07Z</time>
      </trkpt>
      <trkpt lat="49.13459" lon="1.28724">
        <ele>140</ele>
        <time>2018-03-15T20:49:07Z</time>
      </trkpt>
      <trkpt lat="49.13466" lon="1.28664">
        <ele>141</ele>
        <time>2018-03-15T20:50:07Z</time>
      </trkpt>
      <trkpt lat="49.13517" lon="1.28529">
        <ele>144</ele>
        <time>2018-03-15T20:51:07Z</time>
      </trkpt>
      <trkpt lat="49.13566" lon="1.28444">
        <ele>145</ele>
        <time>2018-03-15T20:52:07Z</time>
      </trkpt>
      <trkpt lat="49.13596" lon="1.28299">
        <ele>146</ele>
        <time>2018-03-15T20:53:07Z</time>
      </trkpt>
      <trkpt lat="49.13771" lon="1.28145">
        <ele>148</ele>
        <time>2018-03-15T20:54:07Z</time>
      </trkpt>
      <trkpt lat="49.13813" lon="1.2806">
        <ele>148</ele>
        <time>2018-03-15T20:55:07Z</time>
      </trkpt>
      <trkpt lat="49.13893" lon="1.28006">
        <ele>149</ele>
        <time>2018-03-15T20:56:07Z</time>
      </trkpt>
      <trkpt lat="49.14065" lon="1.2793">
        <ele>148</ele>
        <time>2018-03-15T20:57:07Z</time>
      </trkpt>
      <trkpt lat="49.14176" lon="1.27798">
        <ele>148</ele>
        <time>2018-03-15T20:58:07Z</time>
      </trkpt>
      <trkpt lat="49.14273" lon="1.27622">
        <ele>149</ele>
        <time>2018-03-15T20:59:07Z</time>
      </trkpt>
      <trkpt lat="49.14718" lon="1.27001">
        <ele>151</ele>
        <time>2018-03-15T21:00:07Z</time>
      </trkpt>
      <trkpt lat="49.14303" lon="1.26475">
        <ele>156</ele>
        <time>2018-03-15T21:01:07Z</time>
      </trkpt>
      <trkpt lat="49.14597" lon="1.25766">
        <ele>153</ele>
        <time>2018-03-15T21:02:07Z</time>
      </trkpt>
      <trkpt lat="49.14719" lon="1.25629">
        <ele>154</ele>
        <time>2018-03-15T21:03:07Z</time>
      </trkpt>
      <trkpt lat="49.14843" lon="1.25374">
        <ele>153</ele>
        <time>2018-03-15T21:04:07Z</time>
      </trkpt>
      <trkpt lat="49.14962" lon="1.25629">
        <ele>153</ele>
        <time>2018-03-15T21:05:07Z</time>
      </trkpt>
      <trkpt lat="49.15646" lon="1.25218">
        <ele>153</ele>
        <time>2018-03-15T21:06:07Z</time>
      </trkpt>
      <trkpt lat="49.15575" lon="1.25099">
        <ele>152</ele>
        <time>2018-03-15T21:07:07Z</time>
      </trkpt>
      <trkpt lat="49.15549" lon="1.24918">
        <ele>151</ele>
        <time>2018-03-15T21:08:07Z</time>
      </trkpt>
      <trkpt lat="49.15533" lon="1.2485">
        <ele>150</ele>
        <time>2018-03-15T21:09:07Z</time>
      </trkpt>
      <trkpt lat="49.156" lon="1.24841">
        <ele>151</ele>
        <time>2018-03-15T21:10:07Z</time>
      </trkpt>
      <trkpt lat="49.15746" lon="1.24858">
        <ele>152</ele>
        <time>2018-03-15T21:11:07Z</time>
      </trkpt>
      <trkpt lat="49.15802" lon="1.24798">
        <ele>152</ele>
        <time>2018-03-15T21:12:07Z</time>
      </trkpt>
      <trkpt lat="49.15965" lon="1.24785">
        <ele>155</ele>
        <time>2018-03-15T21:13:07Z</time>
      </trkpt>
      <trkpt lat="49.15976" lon="1.24592">
        <ele>155</ele>
        <time>2018-03-15T21:14:07Z</time>
      </trkpt>
      <trkpt lat="49.1601" lon="1.24515">
        <ele>155</ele>
        <time>2018-03-15T21:15:07Z</time>
      </trkpt>
      <trkpt lat="49.16032" lon="1.24433">
        <ele>155</ele>
        <time>2018-03-15T21:16:07Z</time>
      </trkpt>
      <trkpt lat="49.16091" lon="1.24472">
        <ele>155</ele>
        <time>2018-03-15T21:17:07Z</time>
      </trkpt>
      <trkpt lat="49.16099" lon="1.24541">
        <ele>153</ele>
        <time>2018-03-15T21:18:07Z</time>
      </trkpt>
      <trkpt lat="49.1615" lon="1.24446">
        <ele>154</ele>
        <time>2018-03-15T21:19:07Z</time>
      </trkpt>
      <trkpt lat="49.16257" lon="1.24433">
        <ele>149</ele>
        <time>2018-03-15T21:20:07Z</time>
      </trkpt>
      <trkpt lat="49.16234" lon="1.24103">
        <ele>144</ele>
        <time>2018-03-15T21:21:07Z</time>
      </trkpt>
      <trkpt lat="49.16302" lon="1.24047">
        <ele>143</ele>
        <time>2018-03-15T21:22:07Z</time>
      </trkpt>
      <trkpt lat="49.16431" lon="1.23747">
        <ele>143</ele>
        <time>2018-03-15T21:23:07Z</time>
      </trkpt>
      <trkpt lat="49.1654" lon="1.23622">
        <ele>143</ele>
        <time>2018-03-15T21:24:07Z</time>
      </trkpt>
      <trkpt lat="49.16543" lon="1.22721">
        <ele>149</ele>
        <time>2018-03-15T21:25:07Z</time>
      </trkpt>
      <trkpt lat="49.17023" lon="1.22459">
        <ele>146</ele>
        <time>2018-03-15T21:26:07Z</time>
      </trkpt>
      <trkpt lat="49.17118" lon="1.22189">
        <ele>145</ele>
        <time>2018-03-15T21:27:07Z</time>
      </trkpt>
      <trkpt lat="49.17059" lon="1.22163">
        <ele>143</ele>
        <time>2018-03-15T21:28:07Z</time>
      </trkpt>
      <trkpt lat="49.17031" lon="1.22099">
        <ele>143</ele>
        <time>2018-03-15T21:29:07Z</time>
      </trkpt>
      <trkpt lat="49.16964" lon="1.22009">
        <ele>142</ele>
        <time>2018-03-15T21:30:07Z</time>
      </trkpt>
      <trkpt lat="49.16944" lon="1.21794">
        <ele>139</ele>
        <time>2018-03-15T21:31:07Z</time>
      </trkpt>
      <trkpt lat="49.17042" lon="1.21086">
        <ele>123</ele>
        <time>2018-03-15T21:32:07Z</time>
      </trkpt>
      <trkpt lat="49.17031" lon="1.2094">
        <ele>117</ele>
        <time>2018-03-15T21:33:07Z</time>
      </trkpt>
      <trkpt lat="49.17079" lon="1.20421">
        <ele>95</ele>
        <time>2018-03-15T21:34:07Z</time>
      </trkpt>
      <trkpt lat="49.17149" lon="1.20292">
        <ele>91</ele>
        <time>2018-03-15T21:35:07Z</time>
      </trkpt>
      <trkpt lat="49.17239" lon="1.20279">
        <ele>88</ele>
        <time>2018-03-15T21:36:07Z</time>
      </trkpt>
      <trkpt lat="49.17424" lon="1.20077">
        <ele>77</ele>
        <time>2018-03-15T21:37:07Z</time>
      </trkpt>
      <trkpt lat="49.17387" lon="1.1994">
        <ele>78</ele>
        <time>2018-03-15T21:38:07Z</time>
      </trkpt>
      <trkpt lat="49.17337" lon="1.19867">
        <ele>72</ele>
        <time>2018-03-15T21:39:07Z</time>
      </trkpt>
      <trkpt lat="49.17258" lon="1.1973">
        <ele>66</ele>
        <time>2018-03-15T21:40:07Z</time>
      </trkpt>
      <trkpt lat="49.1725" lon="1.19592">
        <ele>57</ele>
        <time>2018-03-15T21:41:07Z</time>
      </trkpt>
      <trkpt lat="49.17264" lon="1.19438">
        <ele>57</ele>
        <time>2018-03-15T21:42:07Z</time>
      </trkpt>
      <trkpt lat="49.17309" lon="1.19344">
        <ele>55</ele>
        <time>2018-03-15T21:43:07Z</time>
      </trkpt>
      <trkpt lat="49.17373" lon="1.19211">
        <ele>54</ele>
        <time>2018-03-15T21:44:07Z</time>
      </trkpt>
      <trkpt lat="49.17382" lon="1.1882">
        <ele>25</ele>
        <time>2018-03-15T21:45:07Z</time>
      </trkpt>
      <trkpt lat="49.17404" lon="1.18807">
        <ele>26</ele>
        <time>2018-03-15T21:46:07Z</time>
      </trkpt>
      <trkpt lat="49.17376" lon="1.187">
        <ele>21</ele>
        <time>2018-03-15T21:47:07Z</time>
      </trkpt>
      <trkpt lat="49.173" lon="1.1861">
        <ele>22</ele>
        <time>2018-03-15T21:48:07Z</time>
      </trkpt>
      <trkpt lat="49.17261" lon="1.18318">
        <ele>20</ele>
        <time>2018-03-15T21:49:07Z</time>
      </trkpt>
      <trkpt lat="49.17303" lon="1.18039">
        <ele>20</ele>
        <time>2018-03-15T21:50:07Z</time>
      </trkpt>
      <trkpt lat="49.17272" lon="1.17803">
        <ele>20</ele>
        <time>2018-03-15T21:51:07Z</time>
      </trkpt>
      <trkpt lat="49.17199" lon="1.17537">
        <ele>21</ele>
        <time>2018-03-15T21:52:07Z</time>
      </trkpt>
      <trkpt lat="49.17098" lon="1.17271">
        <ele>33</ele>
        <time>2018-03-15T21:53:07Z</time>
      </trkpt>
      <trkpt lat="49.17042" lon="1.17005">
        <ele>48</ele>
        <time>2018-03-15T21:54:07Z</time>
      </trkpt>
      <trkpt lat="49.17194" lon="1.16932">
        <ele>42</ele>
        <time>2018-03-15T21:55:07Z</time>
      </trkpt>
      <trkpt lat="49.17354" lon="1.16932">
        <ele>33</ele>
        <time>2018-03-15T21:56:07Z</time>
      </trkpt>
      <trkpt lat="49.17867" lon="1.16945">
        <ele>17</ele>
        <time>2018-03-15T21:57:07Z</time>
      </trkpt>
      <trkpt lat="49.18007" lon="1.16777">
        <ele>25</ele>
        <time>2018-03-15T21:58:07Z</time>
      </trkpt>
      <trkpt lat="49.18419" lon="1.16741">
        <ele>23</ele>
        <time>2018-03-15T21:59:07Z</time>
      </trkpt>
      <trkpt lat="49.18426" lon="1.16777">
        <ele>22</ele>
        <time>2018-03-15T22:00:07Z</time>
      </trkpt>
      <trkpt lat="49.18473" lon="1.16862">
        <ele>20</ele>
        <time>2018-03-15T22:01:07Z</time>
      </trkpt>
      <trkpt lat="49.18482" lon="1.16907">
        <ele>18</ele>
        <time>2018-03-15T22:02:07Z</time>
      </trkpt>
      <trkpt lat="49.18507" lon="1.16967">
        <ele>19</ele>
        <time>2018-03-15T22:03:07Z</time>
      </trkpt>
      <trkpt lat="49.1862" lon="1.16879">
        <ele>24</ele>
        <time>2018-03-15T22:04:07Z</time>
      </trkpt>
      <trkpt lat="49.18888" lon="1.16765">
        <ele>38</ele>
        <time>2018-03-15T22:05:07Z</time>
      </trkpt>
      <trkpt lat="49.19133" lon="1.16741">
        <ele>39</ele>
        <time>2018-03-15T22:06:07Z</time>
      </trkpt>
      <trkpt lat="49.1908" lon="1.16767">
        <ele>31</ele>
        <time>2018-03-15T22:07:07Z</time>
      </trkpt>
      <trkpt lat="49.19074" lon="1.16974">
        <ele>17</ele>
        <time>2018-03-15T22:08:07Z</time>
      </trkpt>
      <trkpt lat="49.19266" lon="1.17026">
        <ele>16</ele>
        <time>2018-03-15T22:09:07Z</time>
      </trkpt>
      <trkpt lat="49.19543" lon="1.17202">
        <ele>15</ele>
        <time>2018-03-15T22:10:07Z</time>
      </trkpt>
      <trkpt lat="49.19966" lon="1.1753">
        <ele>15</ele>
        <time>2018-03-15T22:11:07Z</time>
      </trkpt>
      <trkpt lat="49.20217" lon="1.17589">
        <ele>13</ele>
        <time>2018-03-15T22:12:07Z</time>
      </trkpt>
      <trkpt lat="49.20459" lon="1.1776">
        <ele>15</ele>
        <time>2018-03-15T22:13:07Z</time>
      </trkpt>
      <trkpt lat="49.20437" lon="1.17876">
        <ele>15</ele>
        <time>2018-03-15T22:14:07Z</time>
      </trkpt>
      <trkpt lat="49.20661" lon="1.17994">
        <ele>17</ele>
        <time>2018-03-15T22:15:07Z</time>
      </trkpt>
      <trkpt lat="49.20835" lon="1.18049">
        <ele>16</ele>
        <time>2018-03-15T22:16:07Z</time>
      </trkpt>
      <trkpt lat="49.20892" lon="1.17989">
        <ele>17</ele>
        <time>2018-03-15T22:17:07Z</time>
      </trkpt>
      <trkpt lat="49.20913" lon="1.17996">
        <ele>17</ele>
        <time>2018-03-15T22:18:07Z</time>
      </trkpt>
      <trkpt lat="49.20933" lon="1.17991">
        <ele>17</ele>
        <time>2018-03-15T22:19:07Z</time>
      </trkpt>
      <trkpt lat="49.2096" lon="1.17989">
        <ele>17</ele>
        <time>2018-03-15T22:20:07Z</time>
      </trkpt>
      <trkpt lat="49.2096" lon="1.17918">
        <ele>16</ele>
        <time>2018-03-15T22:21:07Z</time>
      </trkpt>
      <trkpt lat="49.20978" lon="1.17799">
        <ele>17</ele>
        <time>2018-03-15T22:22:07Z</time>
      </trkpt>
      <trkpt lat="49.21006" lon="1.17814">
        <ele>17</ele>
        <time>2018-03-15T22:23:07Z</time>
      </trkpt>
      <trkpt lat="49.21078" lon="1.17894">
        <ele>15</ele>
        <time>2018-03-15T22:24:07Z</time>
      </trkpt>
      <trkpt lat="49.21163" lon="1.17913">
        <ele>15</ele>
        <time>2018-03-15T22:25:07Z</time>
      </trkpt>
      <trkpt lat="49.21238" lon="1.17949">
        <ele>16</ele>
        <time>2018-03-15T22:26:07Z</time>
      </trkpt>
      <trkpt lat="49.21254" lon="1.17899">
        <ele>16</ele>
        <time>2018-03-15T22:27:07Z</time>
      </trkpt>
      <trkpt lat="49.21367" lon="1.17959">
        <ele>15</ele>
        <time>2018-03-15T22:28:07Z</time>
      </trkpt>
      <trkpt lat="49.21883" lon="1.17867">
        <ele>14</ele>
        <time>2018-03-15T22:29:07Z</time>
      </trkpt>
      <trkpt lat="49.21912" lon="1.17824">
        <ele>14</ele>
        <time>2018-03-15T22:30:07Z</time>
      </trkpt>
      <trkpt lat="49.21957" lon="1.17828">
        <ele>15</ele>
        <time>2018-03-15T22:31:07Z</time>
      </trkpt>
      <trkpt lat="49.21952" lon="1.17788">
        <ele>16</ele>
        <time>2018-03-15T22:32:07Z</time>
      </trkpt>
      <trkpt lat="49.21912" lon="1.1771">
        <ele>15</ele>
        <time>2018-03-15T22:33:07Z</time>
      </trkpt>
      <trkpt lat="49.2187" lon="1.17657">
        <ele>14</ele>
        <time>2018-03-15T22:34:07Z</time>
      </trkpt>
      <trkpt lat="49.21813" lon="1.17631">
        <ele>15</ele>
        <time>2018-03-15T22:35:07Z</time>
      </trkpt>
      <trkpt lat="49.21809" lon="1.17616">
        <ele>15</ele>
        <time>2018-03-15T22:36:07Z</time>
      </trkpt>
      <trkpt lat="49.2177" lon="1.17599">
        <ele>14</ele>
        <time>2018-03-15T22:37:07Z</time>
      </trkpt>
      <trkpt lat="49.21777" lon="1.1753">
        <ele>15</ele>
        <time>2018-03-15T22:38:07Z</time>
      </trkpt>
      <trkpt lat="49.21767" lon="1.17423">
        <ele>15</ele>
        <time>2018-03-15T22:39:07Z</time>
      </trkpt>
      <trkpt lat="49.21768" lon="1.17365">
        <ele>14</ele>
        <time>2018-03-15T22:40:07Z</time>
      </trkpt>
      <trkpt lat="49.21848" lon="1.1732">
        <ele>15</ele>
        <time>2018-03-15T22:41:07Z</time>
      </trkpt>
      <trkpt lat="49.21914" lon="1.17133">
        <ele>14</ele>
        <time>2018-03-15T22:42:07Z</time>
      </trkpt>
      <trkpt lat="49.2199" lon="1.16661">
        <ele>21</ele>
        <time>2018-03-15T22:43:07Z</time>
      </trkpt>
      <trkpt lat="49.22034" lon="1.16646">
        <ele>20</ele>
        <time>2018-03-15T22:44:07Z</time>
      </trkpt>
      <trkpt lat="49.22166" lon="1.16571">
        <ele>20</ele>
        <time>2018-03-15T22:45:07Z</time>
      </trkpt>
      <trkpt lat="49.22264" lon="1.16479">
        <ele>19</ele>
        <time>2018-03-15T22:46:07Z</time>
      </trkpt>
      <trkpt lat="49.22337" lon="1.16359">
        <ele>20</ele>
        <time>2018-03-15T22:47:07Z</time>
      </trkpt>
      <trkpt lat="49.22466" lon="1.16213">
        <ele>21</ele>
        <time>2018-03-15T22:48:07Z</time>
      </trkpt>
      <trkpt lat="49.22571" lon="1.16122">
        <ele>22</ele>
        <time>2018-03-15T22:49:07Z</time>
      </trkpt>
      <trkpt lat="49.2261" lon="1.15992">
        <ele>24</ele>
        <time>2018-03-15T22:50:07Z</time>
      </trkpt>
      <trkpt lat="49.22676" lon="1.15916">
        <ele>26</ele>
        <time>2018-03-15T22:51:07Z</time>
      </trkpt>
      <trkpt lat="49.22724" lon="1.15893">
        <ele>29</ele>
        <time>2018-03-15T22:52:07Z</time>
      </trkpt>
      <trkpt lat="49.22752" lon="1.15816">
        <ele>35</ele>
        <time>2018-03-15T22:53:07Z</time>
      </trkpt>
      <trkpt lat="49.22808" lon="1.15816">
        <ele>49</ele>
        <time>2018-03-15T22:54:07Z</time>
      </trkpt>
      <trkpt lat="49.22856" lon="1.15459">
        <ele>68</ele>
        <time>2018-03-15T22:55:07Z</time>
      </trkpt>
      <trkpt lat="49.22923" lon="1.15335">
        <ele>86</ele>
        <time>2018-03-15T22:56:07Z</time>
      </trkpt>
      <trkpt lat="49.23192" lon="1.14704">
        <ele>119</ele>
        <time>2018-03-15T22:57:07Z</time>
      </trkpt>
      <trkpt lat="49.2338" lon="1.14511">
        <ele>118</ele>
        <time>2018-03-15T22:58:07Z</time>
      </trkpt>
      <trkpt lat="49.23497" lon="1.14249">
        <ele>117</ele>
        <time>2018-03-15T22:59:07Z</time>
      </trkpt>
      <trkpt lat="49.23675" lon="1.13303">
        <ele>121</ele>
        <time>2018-03-15T23:00:07Z</time>
      </trkpt>
      <trkpt lat="49.23744" lon="1.12945">
        <ele>122</ele>
        <time>2018-03-15T23:01:07Z</time>
      </trkpt>
      <trkpt lat="49.2373" lon="1.12692">
        <ele>124</ele>
        <time>2018-03-15T23:02:07Z</time>
      </trkpt>
      <trkpt lat="49.24845" lon="1.13207">
        <ele>85</ele>
        <time>2018-03-15T23:03:07Z</time>
      </trkpt>
      <trkpt lat="49.24842" lon="1.13318">
        <ele>82</ele>
        <time>2018-03-15T23:04:07Z</time>
      </trkpt>
      <trkpt lat="49.24856" lon="1.13413">
        <ele>84</ele>
        <time>2018-03-15T23:05:07Z</time>
      </trkpt>
      <trkpt lat="49.24884" lon="1.13516">
        <ele>82</ele>
        <time>2018-03-15T23:06:07Z</time>
      </trkpt>
      <trkpt lat="49.24954" lon="1.13687">
        <ele>77</ele>
        <time>2018-03-15T23:07:07Z</time>
      </trkpt>
      <trkpt lat="49.24906" lon="1.13786">
        <ele>79</ele>
        <time>2018-03-15T23:08:07Z</time>
      </trkpt>
      <trkpt lat="49.2485" lon="1.1385">
        <ele>76</ele>
        <time>2018-03-15T23:09:07Z</time>
      </trkpt>
      <trkpt lat="49.2501" lon="1.13915">
        <ele>70</ele>
        <time>2018-03-15T23:10:07Z</time>
      </trkpt>
      <trkpt lat="49.25041" lon="1.13859">
        <ele>74</ele>
        <time>2018-03-15T23:11:07Z</time>
      </trkpt>
      <trkpt lat="49.25049" lon="1.13726">
        <ele>81</ele>
        <time>2018-03-15T23:12:07Z</time>
      </trkpt>
      <trkpt lat="49.24965" lon="1.13571">
        <ele>81</ele>
        <time>2018-03-15T23:13:07Z</time>
      </trkpt>
      <trkpt lat="49.24901" lon="1.13387">
        <ele>84</ele>
        <time>2018-03-15T23:14:07Z</time>
      </trkpt>
      <trkpt lat="49.24895" lon="1.13211">
        <ele>82</ele>
        <time>2018-03-15T23:15:07Z</time>
      </trkpt>
      <trkpt lat="49.25041" lon="1.12958">
        <ele>93</ele>
        <time>2018-03-15T23:16:07Z</time>
      </trkpt>
      <trkpt lat="49.25047" lon="1.12593">
        <ele>100</ele>
        <time>2018-03-15T23:17:07Z</time>
      </trkpt>
      <trkpt lat="49.24982" lon="1.12374">
        <ele>95</ele>
        <time>2018-03-15T23:18:07Z</time>
      </trkpt>
      <trkpt lat="49.24991" lon="1.12271">
        <ele>91</ele>
        <time>2018-03-15T23:19:07Z</time>
      </trkpt>
      <trkpt lat="49.25069" lon="1.1216">
        <ele>88</ele>
        <time>2018-03-15T23:20:07Z</time>
      </trkpt>
      <trkpt lat="49.25203" lon="1.12065">
        <ele>91</ele>
        <time>2018-03-15T23:21:07Z</time>
      </trkpt>
      <trkpt lat="49.25313" lon="1.11958">
        <ele>97</ele>
        <time>2018-03-15T23:22:07Z</time>
      </trkpt>
      <trkpt lat="49.25503" lon="1.11932">
        <ele>103</ele>
        <time>2018-03-15T23:23:07Z</time>
      </trkpt>
      <trkpt lat="49.25556" lon="1.11829">
        <ele>104</ele>
        <time>2018-03-15T23:24:07Z</time>
      </trkpt>
      <trkpt lat="49.25587" lon="1.11589">
        <ele>109</ele>
        <time>2018-03-15T23:25:07Z</time>
      </trkpt>
      <trkpt lat="49.2573" lon="1.11374">
        <ele>112</ele>
        <time>2018-03-15T23:26:07Z</time>
      </trkpt>
      <trkpt lat="49.25789" lon="1.11168">
        <ele>115</ele>
        <time>2018-03-15T23:27:07Z</time>
      </trkpt>
      <trkpt lat="49.25901" lon="1.11095">
        <ele>120</ele>
        <time>2018-03-15T23:28:07Z</time>
      </trkpt>
      <trkpt lat="49.25948" lon="1.11121">
        <ele>122</ele>
        <time>2018-03-15T23:29:07Z</time>
      </trkpt>
      <trkpt lat="49.2599" lon="1.11108">
        <ele>122</ele>
        <time>2018-03-15T23:30:07Z</time>
      </trkpt>
      <trkpt lat="49.26013" lon="1.11134">
        <ele>122</ele>
        <time>2018-03-15T23:31:07Z</time>
      </trkpt>
      <trkpt lat="49.26019" lon="1.1119">
        <ele>121</ele>
        <time>2018-03-15T23:32:07Z</time>
      </trkpt>
      <trkpt lat="49.26061" lon="1.11198">
        <ele>121</ele>
        <time>2018-03-15T23:33:07Z</time>
      </trkpt>
      <trkpt lat="49.26089" lon="1.1122">
        <ele>120</ele>
        <time>2018-03-15T23:34:07Z</time>
      </trkpt>
      <trkpt lat="49.26175" lon="1.10979">
        <ele>126</ele>
        <time>2018-03-15T23:35:07Z</time>
      </trkpt>
      <trkpt lat="49.26189" lon="1.10906">
        <ele>127</ele>
        <time>2018-03-15T23:36:07Z</time>
      </trkpt>
      <trkpt lat="49.26514" lon="1.10434">
        <ele>127</ele>
        <time>2018-03-15T23:37:07Z</time>
      </trkpt>
      <trkpt lat="49.26531" lon="1.10383">
        <ele>127</ele>
        <time>2018-03-15T23:38:07Z</time>
      </trkpt>
      <trkpt lat="49.26559" lon="1.10297">
        <ele>127</ele>
        <time>2018-03-15T23:39:07Z</time>
      </trkpt>
      <trkpt lat="49.2659" lon="1.10241">
        <ele>128</ele>
        <time>2018-03-15T23:40:07Z</time>
      </trkpt>
      <trkpt lat="49.26601" lon="1.10065">
        <ele>128</ele>
        <time>2018-03-15T23:41:07Z</time>
      </trkpt>
      <trkpt lat="49.26618" lon="1.09898">
        <ele>126</ele>
        <time>2018-03-15T23:42:07Z</time>
      </trkpt>
      <trkpt lat="49.26632" lon="1.0967">
        <ele>125</ele>
        <time>2018-03-15T23:43:07Z</time>
      </trkpt>
      <trkpt lat="49.26665" lon="1.09585">
        <ele>124</ele>
        <time>2018-03-15T23:44:07Z</time>
      </trkpt>
      <trkpt lat="49.26691" lon="1.09503">
        <ele>123</ele>
        <time>2018-03-15T23:45:07Z</time>
      </trkpt>
      <trkpt lat="49.26741" lon="1.0946">
        <ele>123</ele>
        <time>2018-03-15T23:46:07Z</time>
      </trkpt>
      <trkpt lat="49.26783" lon="1.094">
        <ele>121</ele>
        <time>2018-03-15T23:47:07Z</time>
      </trkpt>
      <trkpt lat="49.26842" lon="1.0937">
        <ele>120</ele>
        <time>2018-03-15T23:48:07Z</time>
      </trkpt>
      <trkpt lat="49.26934" lon="1.09319">
        <ele>115</ele>
        <time>2018-03-15T23:49:07Z</time>
      </trkpt>
      <trkpt lat="49.26971" lon="1.09284">
        <ele>109</ele>
        <time>2018-03-15T23:50:07Z</time>
      </trkpt>
      <trkpt lat="49.27083" lon="1.09258">
        <ele>104</ele>
        <time>2018-03-15T23:51:07Z</time>
      </trkpt>
      <trkpt lat="49.27237" lon="1.091">
        <ele>88</ele>
        <time>2018-03-15T23:52:07Z</time>
      </trkpt>
      <trkpt lat="49.27301" lon="1.08988">
        <ele>81</ele>
        <time>2018-03-15T23:53:07Z</time>
      </trkpt>
      <trkpt lat="49.27309" lon="1.08902">
        <ele>74</ele>
        <time>2018-03-15T23:54:07Z</time>
      </trkpt>
      <trkpt lat="49.27315" lon="1.08786">
        <ele>65</ele>
        <time>2018-03-15T23:55:07Z</time>
      </trkpt>
      <trkpt lat="49.2734" lon="1.08756">
        <ele>62</ele>
        <time>2018-03-15T23:56:07Z</time>
      </trkpt>
      <trkpt lat="49.27368" lon="1.08662">
        <ele>61</ele>
        <time>2018-03-15T23:57:07Z</time>
      </trkpt>
      <trkpt lat="49.27449" lon="1.08546">
        <ele>57</ele>
        <time>2018-03-15T23:58:07Z</time>
      </trkpt>
      <trkpt lat="49.27511" lon="1.08186">
        <ele>52</ele>
        <time>2018-03-15T23:59:07Z</time>
      </trkpt>
      <trkpt lat="49.2727" lon="1.07842">
        <ele>55</ele>
        <time>2018-03-16T00:00:07Z</time>
      </trkpt>
      <trkpt lat="49.27248" lon="1.07877">
        <ele>56</ele>
        <time>2018-03-16T00:01:07Z</time>
      </trkpt>
      <trkpt lat="49.27225" lon="1.07795">
        <ele>55</ele>
        <time>2018-03-16T00:02:07Z</time>
      </trkpt>
      <trkpt lat="49.2715" lon="1.07709">
        <ele>56</ele>
        <time>2018-03-16T00:03:07Z</time>
      </trkpt>
      <trkpt lat="49.27125" lon="1.07632">
        <ele>54</ele>
        <time>2018-03-16T00:04:07Z</time>
      </trkpt>
      <trkpt lat="49.27055" lon="1.0758">
        <ele>55</ele>
        <time>2018-03-16T00:05:07Z</time>
      </trkpt>
      <trkpt lat="49.27035" lon="1.07538">
        <ele>54</ele>
        <time>2018-03-16T00:06:07Z</time>
      </trkpt>
      <trkpt lat="49.2699" lon="1.07486">
        <ele>53</ele>
        <time>2018-03-16T00:07:07Z</time>
      </trkpt>
      <trkpt lat="49.26959" lon="1.07396">
        <ele>54</ele>
        <time>2018-03-16T00:08:07Z</time>
      </trkpt>
      <trkpt lat="49.26555" lon="1.0684">
        <ele>62</ele>
        <time>2018-03-16T00:09:07Z</time>
      </trkpt>
      <trkpt lat="49.26299" lon="1.06493">
        <ele>75</ele>
        <time>2018-03-16T00:10:07Z</time>
      </trkpt>
      <trkpt lat="49.26411" lon="1.06218">
        <ele>67</ele>
        <time>2018-03-16T00:11:07Z</time>
      </trkpt>
      <trkpt lat="49.26534" lon="1.06021">
        <ele>61</ele>
        <time>2018-03-16T00:12:07Z</time>
      </trkpt>
      <trkpt lat="49.26572" lon="1.05982">
        <ele>58</ele>
        <time>2018-03-16T00:13:07Z</time>
      </trkpt>
      <trkpt lat="49.26615" lon="1.05903">
        <ele>55</ele>
        <time>2018-03-16T00:14:07Z</time>
      </trkpt>
      <trkpt lat="49.26672" lon="1.05842">
        <ele>47</ele>
        <time>2018-03-16T00:15:07Z</time>
      </trkpt>
      <trkpt lat="49.26745" lon="1.05737">
        <ele>40</ele>
        <time>2018-03-16T00:16:07Z</time>
      </trkpt>
      <trkpt lat="49.26793" lon="1.05454">
        <ele>36</ele>
        <time>2018-03-16T00:17:07Z</time>
      </trkpt>
      <trkpt lat="49.26791" lon="1.05396">
        <ele>36</ele>
        <time>2018-03-16T00:18:07Z</time>
      </trkpt>
      <trkpt lat="49.26719" lon="1.05445">
        <ele>37</ele>
        <time>2018-03-16T00:19:07Z</time>
      </trkpt>
      <trkpt lat="49.26668" lon="1.05445">
        <ele>37</ele>
        <time>2018-03-16T00:20:07Z</time>
      </trkpt>
      <trkpt lat="49.26678" lon="1.05304">
        <ele>37</ele>
        <time>2018-03-16T00:21:07Z</time>
      </trkpt>
      <trkpt lat="49.265" lon="1.05274">
        <ele>35</ele>
        <time>2018-03-16T00:22:07Z</time>
      </trkpt>
      <trkpt lat="49.26502" lon="1.05231">
        <ele>37</ele>
        <time>2018-03-16T00:23:07Z</time>
      </trkpt>
      <trkpt lat="49.26534" lon="1.05143">
        <ele>41</ele>
        <time>2018-03-16T00:24:07Z</time>
      </trkpt>
      <trkpt lat="49.26497" lon="1.05156">
        <ele>42</ele>
        <time>2018-03-16T00:25:07Z</time>
      </trkpt>
      <trkpt lat="49.26312" lon="1.05194">
        <ele>48</ele>
        <time>2018-03-16T00:26:07Z</time>
      </trkpt>
      <trkpt lat="49.26237" lon="1.05158">
        <ele>52</ele>
        <time>2018-03-16T00:27:07Z</time>
      </trkpt>
      <trkpt lat="49.26084" lon="1.05035">
        <ele>67</ele>
        <time>2018-03-16T00:28:07Z</time>
      </trkpt>
      <trkpt lat="49.26166" lon="1.04997">
        <ele>65</ele>
        <time>2018-03-16T00:29:07Z</time>
      </trkpt>
      <trkpt lat="49.26171" lon="1.04973">
        <ele>66</ele>
        <time>2018-03-16T00:30:07Z</time>
      </trkpt>
      <trkpt lat="49.26142" lon="1.04928">
        <ele>72</ele>
        <time>2018-03-16T00:31:07Z</time>
      </trkpt>
      <trkpt lat="49.25506" lon="1.04474">
        <ele>120</ele>
        <time>2018-03-16T00:32:07Z</time>
      </trkpt>
      <trkpt lat="49.25554" lon="1.04359">
        <ele>119</ele>
        <time>2018-03-16T00:33:07Z</time>
      </trkpt>
      <trkpt lat="49.25595" lon="1.04302">
        <ele>118</ele>
        <time>2018-03-16T00:34:07Z</time>
      </trkpt>
      <trkpt lat="49.25529" lon="1.04194">
        <ele>115</ele>
        <time>2018-03-16T00:35:07Z</time>
      </trkpt>
      <trkpt lat="49.25484" lon="1.04121">
        <ele>116</ele>
        <time>2018-03-16T00:36:07Z</time>
      </trkpt>
      <trkpt lat="49.25271" lon="1.03774">
        <ele>121</ele>
        <time>2018-03-16T00:37:07Z</time>
      </trkpt>
      <trkpt lat="49.25173" lon="1.03803">
        <ele>123</ele>
        <time>2018-03-16T00:38:07Z</time>
      </trkpt>
      <trkpt lat="49.25092" lon="1.03791">
        <ele>121</ele>
        <time>2018-03-16T00:39:07Z</time>
      </trkpt>
      <trkpt lat="49.25024" lon="1.03782">
        <ele>120</ele>
        <time>2018-03-16T00:40:07Z</time>
      </trkpt>
      <trkpt lat="49.24934" lon="1.03654">
        <ele>117</ele>
        <time>2018-03-16T00:41:07Z</time>
      </trkpt>
      <trkpt lat="49.24906" lon="1.03534">
        <ele>119</ele>
        <time>2018-03-16T00:42:07Z</time>
      </trkpt>
      <trkpt lat="49.24845" lon="1.03409">
        <ele>123</ele>
        <time>2018-03-16T00:43:07Z</time>
      </trkpt>
      <trkpt lat="49.24767" lon="1.03238">
        <ele>129</ele>
        <time>2018-03-16T00:44:07Z</time>
      </trkpt>
      <trkpt lat="49.2466" lon="1.03259">
        <ele>131</ele>
        <time>2018-03-16T00:45:07Z</time>
      </trkpt>
      <trkpt lat="49.24514" lon="1.03233">
        <ele>132</ele>
        <time>2018-03-16T00:46:07Z</time>
      </trkpt>
      <trkpt lat="49.24486" lon="1.03121">
        <ele>124</ele>
        <time>2018-03-16T00:47:07Z</time>
      </trkpt>
      <trkpt lat="49.24444" lon="1.03019">
        <ele>110</ele>
        <time>2018-03-16T00:48:07Z</time>
      </trkpt>
      <trkpt lat="49.24441" lon="1.02765">
        <ele>80</ele>
        <time>2018-03-16T00:49:07Z</time>
      </trkpt>
      <trkpt lat="49.24511" lon="1.02877">
        <ele>80</ele>
        <time>2018-03-16T00:50:07Z</time>
      </trkpt>
      <trkpt lat="49.24579" lon="1.02924">
        <ele>75</ele>
        <time>2018-03-16T00:51:07Z</time>
      </trkpt>
      <trkpt lat="49.24643" lon="1.02894">
        <ele>74</ele>
        <time>2018-03-16T00:52:07Z</time>
      </trkpt>
      <trkpt lat="49.24685" lon="1.028">
        <ele>71</ele>
        <time>2018-03-16T00:53:07Z</time>
      </trkpt>
      <trkpt lat="49.24766" lon="1.02671">
        <ele>64</ele>
        <time>2018-03-16T00:54:07Z</time>
      </trkpt>
      <trkpt lat="49.24806" lon="1.02615">
        <ele>62</ele>
        <time>2018-03-16T00:55:07Z</time>
      </trkpt>
      <trkpt lat="49.24862" lon="1.02591">
        <ele>60</ele>
        <time>2018-03-16T00:56:07Z</time>
      </trkpt>
      <trkpt lat="49.24881" lon="1.02584">
        <ele>61</ele>
        <time>2018-03-16T00:57:07Z</time>
      </trkpt>
      <trkpt lat="49.24929" lon="1.0254">
        <ele>63</ele>
        <time>2018-03-16T00:58:07Z</time>
      </trkpt>
      <trkpt lat="49.24973" lon="1.02469">
        <ele>67</ele>
        <time>2018-03-16T00:59:07Z</time>
      </trkpt>
      <trkpt lat="49.2498" lon="1.02393">
        <ele>64</ele>
        <time>2018-03-16T01:00:07Z</time>
      </trkpt>
      <trkpt lat="49.24972" lon="1.02284">
        <ele>60</ele>
        <time>2018-03-16T01:01:07Z</time>
      </trkpt>
      <trkpt lat="49.2498" lon="1.02233">
        <ele>58</ele>
        <time>2018-03-16T01:02:07Z</time>
      </trkpt>
      <trkpt lat="49.24993" lon="1.02201">
        <ele>56</ele>
        <time>2018-03-16T01:03:07Z</time>
      </trkpt>
      <trkpt lat="49.25002" lon="1.02188">
        <ele>55</ele>
        <time>2018-03-16T01:04:07Z</time>
      </trkpt>
      <trkpt lat="49.25096" lon="1.02111">
        <ele>56</ele>
        <time>2018-03-16T01:05:07Z</time>
      </trkpt>
      <trkpt lat="49.25221" lon="1.0193">
        <ele>51</ele>
        <time>2018-03-16T01:06:07Z</time>
      </trkpt>
      <trkpt lat="49.25245" lon="1.01915">
        <ele>50</ele>
        <time>2018-03-16T01:07:07Z</time>
      </trkpt>
      <trkpt lat="49.25273" lon="1.01909">
        <ele>50</ele>
        <time>2018-03-16T01:08:07Z</time>
      </trkpt>
      <trkpt lat="49.25313" lon="1.01823">
        <ele>50</ele>
        <time>2018-03-16T01:09:07Z</time>
      </trkpt>
      <trkpt lat="49.25327" lon="1.01813">
        <ele>51</ele>
        <time>2018-03-16T01:10:07Z</time>
      </trkpt>
      <trkpt lat="49.25326" lon="1.01772">
        <ele>53</ele>
        <time>2018-03-16T01:11:07Z</time>
      </trkpt>
      <trkpt lat="49.25308" lon="1.01747">
        <ele>54</ele>
        <time>2018-03-16T01:12:07Z</time>
      </trkpt>
      <trkpt lat="49.25313" lon="1.01611">
        <ele>65</ele>
        <time>2018-03-16T01:13:07Z</time>
      </trkpt>
      <trkpt lat="49.25311" lon="1.01586">
        <ele>67</ele>
        <time>2018-03-16T01:14:07Z</time>
      </trkpt>
      <trkpt lat="49.2532" lon="1.0157">
        <ele>67</ele>
        <time>2018-03-16T01:15:07Z</time>
      </trkpt>
      <trkpt lat="49.25342" lon="1.01551">
        <ele>70</ele>
        <time>2018-03-16T01:16:07Z</time>
      </trkpt>
      <trkpt lat="49.25357" lon="1.01519">
        <ele>74</ele>
        <time>2018-03-16T01:17:07Z</time>
      </trkpt>
      <trkpt lat="49.25362" lon="1.01574">
        <ele>76</ele>
        <time>2018-03-16T01:18:07Z</time>
      </trkpt>
      <trkpt lat="49.25389" lon="1.0159">
        <ele>83</ele>
        <time>2018-03-16T01:19:07Z</time>
      </trkpt>
      <trkpt lat="49.25459" lon="1.01614">
        <ele>98</ele>
        <time>2018-03-16T01:20:07Z</time>
      </trkpt>
      <trkpt lat="49.25517" lon="1.01666">
        <ele>106</ele>
        <time>2018-03-16T01:21:07Z</time>
      </trkpt>
      <trkpt lat="49.25557" lon="1.01695">
        <ele>107</ele>
        <time>2018-03-16T01:22:07Z</time>
      </trkpt>
      <trkpt lat="49.25582" lon="1.01725">
        <ele>109</ele>
        <time>2018-03-16T01:23:07Z</time>
      </trkpt>
      <trkpt lat="49.25625" lon="1.01734">
        <ele>110</ele>
        <time>2018-03-16T01:24:07Z</time>
      </trkpt>
      <trkpt lat="49.25647" lon="1.01745">
        <ele>110</ele>
        <time>2018-03-16T01:25:07Z</time>
      </trkpt>
      <trkpt lat="49.25678" lon="1.01752">
        <ele>110</ele>
        <time>2018-03-16T01:26:07Z</time>
      </trkpt>
      <trkpt lat="49.25696" lon="1.01749">
        <ele>110</ele>
        <time>2018-03-16T01:27:07Z</time>
      </trkpt>
      <trkpt lat="49.258" lon="1.0162">
        <ele>115</ele>
        <time>2018-03-16T01:28:07Z</time>
      </trkpt>
      <trkpt lat="49.25799" lon="1.01602">
        <ele>117</ele>
        <time>2018-03-16T01:29:07Z</time>
      </trkpt>
      <trkpt lat="49.25811" lon="1.01556">
        <ele>119</ele>
        <time>2018-03-16T01:30:07Z</time>
      </trkpt>
      <trkpt lat="49.25826" lon="1.01513">
        <ele>121</ele>
        <time>2018-03-16T01:31:07Z</time>
      </trkpt>
      <trkpt lat="49.25848" lon="1.01468">
        <ele>123</ele>
        <time>2018-03-16T01:32:07Z</time>
      </trkpt>
      <trkpt lat="49.25882" lon="1.01373">
        <ele>128</ele>
        <time>2018-03-16T01:33:07Z</time>
      </trkpt>
      <trkpt lat="49.25918" lon="1.01349">
        <ele>130</ele>
        <time>2018-03-16T01:34:07Z</time>
      </trkpt>
      <trkpt lat="49.25958" lon="1.01315">
        <ele>131</ele>
        <time>2018-03-16T01:35:07Z</time>
      </trkpt>
      <trkpt lat="49.25993" lon="1.01272">
        <ele>132</ele>
        <time>2018-03-16T01:36:07Z</time>
      </trkpt>
      <trkpt lat="49.26035" lon="1.01263">
        <ele>132</ele>
        <time>2018-03-16T01:37:07Z</time>
      </trkpt>
      <trkpt lat="49.26201" lon="1.0119">
        <ele>133</ele>
        <time>2018-03-16T01:38:07Z</time>
      </trkpt>
      <trkpt lat="49.26279" lon="1.01195">
        <ele>134</ele>
        <time>2018-03-16T01:39:07Z</time>
      </trkpt>
      <trkpt lat="49.26357" lon="1.01139">
        <ele>136</ele>
        <time>2018-03-16T01:40:07Z</time>
      </trkpt>
      <trkpt lat="49.26402" lon="1.01092">
        <ele>136</ele>
        <time>2018-03-16T01:41:07Z</time>
      </trkpt>
      <trkpt lat="49.26411" lon="1.01057">
        <ele>136</ele>
        <time>2018-03-16T01:42:07Z</time>
      </trkpt>
      <trkpt lat="49.26461" lon="1.01057">
        <ele>135</ele>
        <time>2018-03-16T01:43:07Z</time>
      </trkpt>
      <trkpt lat="49.26497" lon="1.01014">
        <ele>135</ele>
        <time>2018-03-16T01:44:07Z</time>
      </trkpt>
      <trkpt lat="49.26581" lon="1.00993">
        <ele>135</ele>
        <time>2018-03-16T01:45:07Z</time>
      </trkpt>
      <trkpt lat="49.26657" lon="1.00916">
        <ele>131</ele>
        <time>2018-03-16T01:46:07Z</time>
      </trkpt>
      <trkpt lat="49.27046" lon="1.00233">
        <ele>129</ele>
        <time>2018-03-16T01:47:07Z</time>
      </trkpt>
      <trkpt lat="49.27108" lon="1.00255">
        <ele>129</ele>
        <time>2018-03-16T01:48:07Z</time>
      </trkpt>
      <trkpt lat="49.2722" lon="1.00148">
        <ele>121</ele>
        <time>2018-03-16T01:49:07Z</time>
      </trkpt>
      <trkpt lat="49.27262" lon="1.001">
        <ele>113</ele>
        <time>2018-03-16T01:50:07Z</time>
      </trkpt>
      <trkpt lat="49.27399" lon="1.00152">
        <ele>101</ele>
        <time>2018-03-16T01:51:07Z</time>
      </trkpt>
      <trkpt lat="49.27458" lon="1.00148">
        <ele>84</ele>
        <time>2018-03-16T01:52:07Z</time>
      </trkpt>
      <trkpt lat="49.27511" lon="1.00248">
        <ele>67</ele>
        <time>2018-03-16T01:53:07Z</time>
      </trkpt>
      <trkpt lat="49.2757" lon="1.0033">
        <ele>55</ele>
        <time>2018-03-16T01:54:07Z</time>
      </trkpt>
      <trkpt lat="49.27578" lon="1.00221">
        <ele>49</ele>
        <time>2018-03-16T01:55:07Z</time>
      </trkpt>
      <trkpt lat="49.27612" lon="1.00347">
        <ele>49</ele>
        <time>2018-03-16T01:56:07Z</time>
      </trkpt>
      <trkpt lat="49.27668" lon="1.00293">
        <ele>44</ele>
        <time>2018-03-16T01:57:07Z</time>
      </trkpt>
      <trkpt lat="49.27735" lon="1.00487">
        <ele>45</ele>
        <time>2018-03-16T01:58:07Z</time>
      </trkpt>
      <trkpt lat="49.27731" lon="1.00512">
        <ele>44</ele>
        <time>2018-03-16T01:59:07Z</time>
      </trkpt>
      <trkpt lat="49.27745" lon="1.00523">
        <ele>44</ele>
        <time>2018-03-16T02:00:07Z</time>
      </trkpt>
      <trkpt lat="49.27757" lon="1.00504">
        <ele>45</ele>
        <time>2018-03-16T02:01:07Z</time>
      </trkpt>
      <trkpt lat="49.27897" lon="1.00705">
        <ele>42</ele>
        <time>2018-03-16T02:02:07Z</time>
      </trkpt>
      <trkpt lat="49.2793" lon="1.00753">
        <ele>38</ele>
        <time>2018-03-16T02:03:07Z</time>
      </trkpt>
      <trkpt lat="49.27948" lon="1.00733">
        <ele>39</ele>
        <time>2018-03-16T02:04:07Z</time>
      </trkpt>
      <trkpt lat="49.27917" lon="1.00697">
        <ele>43</ele>
        <time>2018-03-16T02:05:07Z</time>
      </trkpt>
      <trkpt lat="49.27839" lon="1.00499">
        <ele>61</ele>
        <time>2018-03-16T02:06:07Z</time>
      </trkpt>
      <trkpt lat="49.27861" lon="1.00478">
        <ele>69</ele>
        <time>2018-03-16T02:07:07Z</time>
      </trkpt>
      <trkpt lat="49.2782" lon="1.00223">
        <ele>94</ele>
        <time>2018-03-16T02:08:07Z</time>
      </trkpt>
      <trkpt lat="49.28085" lon="0.99594">
        <ele>124</ele>
        <time>2018-03-16T02:09:07Z</time>
      </trkpt>
      <trkpt lat="49.28127" lon="0.99609">
        <ele>122</ele>
        <time>2018-03-16T02:10:07Z</time>
      </trkpt>
      <trkpt lat="49.28287" lon="0.99695">
        <ele>115</ele>
        <time>2018-03-16T02:11:07Z</time>
      </trkpt>
      <trkpt lat="49.28355" lon="0.99716">
        <ele>109</ele>
        <time>2018-03-16T02:12:07Z</time>
      </trkpt>
      <trkpt lat="49.28421" lon="0.99751">
        <ele>102</ele>
        <time>2018-03-16T02:13:07Z</time>
      </trkpt>
      <trkpt lat="49.28459" lon="0.99753">
        <ele>91</ele>
        <time>2018-03-16T02:14:07Z</time>
      </trkpt>
      <trkpt lat="49.28531" lon="0.99757">
        <ele>74</ele>
        <time>2018-03-16T02:15:07Z</time>
      </trkpt>
      <trkpt lat="49.28573" lon="0.99739">
        <ele>65</ele>
        <time>2018-03-16T02:16:07Z</time>
      </trkpt>
      <trkpt lat="49.28606" lon="0.99748">
        <ele>61</ele>
        <time>2018-03-16T02:17:07Z</time>
      </trkpt>
      <trkpt lat="49.28627" lon="0.99776">
        <ele>58</ele>
        <time>2018-03-16T02:18:07Z</time>
      </trkpt>
      <trkpt lat="49.28631" lon="0.99798">
        <ele>56</ele>
        <time>2018-03-16T02:19:07Z</time>
      </trkpt>
      <trkpt lat="49.28622" lon="0.99822">
        <ele>57</ele>
        <time>2018-03-16T02:20:07Z</time>
      </trkpt>
      <trkpt lat="49.28592" lon="0.99856">
        <ele>58</ele>
        <time>2018-03-16T02:21:07Z</time>
      </trkpt>
      <trkpt lat="49.28592" lon="0.99884">
        <ele>54</ele>
        <time>2018-03-16T02:22:07Z</time>
      </trkpt>
      <trkpt lat="49.28737" lon="1.00061">
        <ele>24</ele>
        <time>2018-03-16T02:23:07Z</time>
      </trkpt>
      <trkpt lat="49.28881" lon="1.00201">
        <ele>16</ele>
        <time>2018-03-16T02:24:07Z</time>
      </trkpt>
      <trkpt lat="49.28947" lon="1.00272">
        <ele>14</ele>
        <time>2018-03-16T02:25:07Z</time>
      </trkpt>
      <trkpt lat="49.29006" lon="1.00285">
        <ele>14</ele>
        <time>2018-03-16T02:26:07Z</time>
      </trkpt>
      <trkpt lat="49.29076" lon="0.99979">
        <ele>14</ele>
        <time>2018-03-16T02:27:07Z</time>
      </trkpt>
      <trkpt lat="49.29124" lon="0.99851">
        <ele>19</ele>
        <time>2018-03-16T02:28:07Z</time>
      </trkpt>
      <trkpt lat="49.29171" lon="0.99787">
        <ele>21</ele>
        <time>2018-03-16T02:29:07Z</time>
      </trkpt>
      <trkpt lat="49.2923" lon="0.99736">
        <ele>21</ele>
        <time>2018-03-16T02:30:07Z</time>
      </trkpt>
      <trkpt lat="49.29163" lon="0.99577">
        <ele>42</ele>
        <time>2018-03-16T02:31:07Z</time>
      </trkpt>
      <trkpt lat="49.29048" lon="0.99603">
        <ele>48</ele>
        <time>2018-03-16T02:32:07Z</time>
      </trkpt>
      <trkpt lat="49.29037" lon="0.99521">
        <ele>55</ele>
        <time>2018-03-16T02:33:07Z</time>
      </trkpt>
      <trkpt lat="49.29182" lon="0.99302">
        <ele>87</ele>
        <time>2018-03-16T02:34:07Z</time>
      </trkpt>
      <trkpt lat="49.29266" lon="0.99015">
        <ele>120</ele>
        <time>2018-03-16T02:35:07Z</time>
      </trkpt>
      <trkpt lat="49.29333" lon="0.98924">
        <ele>124</ele>
        <time>2018-03-16T02:36:07Z</time>
      </trkpt>
      <trkpt lat="49.29499" lon="0.98509">
        <ele>126</ele>
        <time>2018-03-16T02:37:07Z</time>
      </trkpt>
      <trkpt lat="49.29576" lon="0.98399">
        <ele>128</ele>
        <time>2018-03-16T02:38:07Z</time>
      </trkpt>
      <trkpt lat="49.2958" lon="0.98358">
        <ele>127</ele>
        <time>2018-03-16T02:39:07Z</time>
      </trkpt>
      <trkpt lat="49.29697" lon="0.9824">
        <ele>129</ele>
        <time>2018-03-16T02:40:07Z</time>
      </trkpt>
      <trkpt lat="49.29726" lon="0.98209">
        <ele>128</ele>
        <time>2018-03-16T02:41:07Z</time>
      </trkpt>
      <trkpt lat="49.29779" lon="0.98069">
        <ele>130</ele>
        <time>2018-03-16T02:42:07Z</time>
      </trkpt>
      <trkpt lat="49.29808" lon="0.98015">
        <ele>130</ele>
        <time>2018-03-16T02:43:07Z</time>
      </trkpt>
      <trkpt lat="49.29902" lon="0.97883">
        <ele>127</ele>
        <time>2018-03-16T02:44:07Z</time>
      </trkpt>
      <trkpt lat="49.29966" lon="0.97852">
        <ele>128</ele>
        <time>2018-03-16T02:45:07Z</time>
      </trkpt>
      <trkpt lat="49.30007" lon="0.97748">
        <ele>128</ele>
        <time>2018-03-16T02:46:07Z</time>
      </trkpt>
      <trkpt lat="49.30085" lon="0.97494">
        <ele>127</ele>
        <time>2018-03-16T02:47:07Z</time>
      </trkpt>
      <trkpt lat="49.30103" lon="0.9751">
        <ele>127</ele>
        <time>2018-03-16T02:48:07Z</time>
      </trkpt>
      <trkpt lat="49.30183" lon="0.97457">
        <ele>127</ele>
        <time>2018-03-16T02:49:07Z</time>
      </trkpt>
      <trkpt lat="49.30214" lon="0.97442">
        <ele>126</ele>
        <time>2018-03-16T02:50:07Z</time>
      </trkpt>
      <trkpt lat="49.30274" lon="0.97358">
        <ele>124</ele>
        <time>2018-03-16T02:51:07Z</time>
      </trkpt>
      <trkpt lat="49.30319" lon="0.97345">
        <ele>123</ele>
        <time>2018-03-16T02:52:07Z</time>
      </trkpt>
      <trkpt lat="49.30431" lon="0.97214">
        <ele>114</ele>
        <time>2018-03-16T02:53:07Z</time>
      </trkpt>
      <trkpt lat="49.30531" lon="0.97212">
        <ele>118</ele>
        <time>2018-03-16T02:54:07Z</time>
      </trkpt>
      <trkpt lat="49.30545" lon="0.97191">
        <ele>118</ele>
        <time>2018-03-16T02:55:07Z</time>
      </trkpt>
      <trkpt lat="49.3066" lon="0.97212">
        <ele>119</ele>
        <time>2018-03-16T02:56:07Z</time>
      </trkpt>
      <trkpt lat="49.30717" lon="0.97163">
        <ele>122</ele>
        <time>2018-03-16T02:57:07Z</time>
      </trkpt>
      <trkpt lat="49.30731" lon="0.97103">
        <ele>123</ele>
        <time>2018-03-16T02:58:07Z</time>
      </trkpt>
      <trkpt lat="49.30769" lon="0.97028">
        <ele>124</ele>
        <time>2018-03-16T02:59:07Z</time>
      </trkpt>
      <trkpt lat="49.30789" lon="0.96955">
        <ele>125</ele>
        <time>2018-03-16T03:00:07Z</time>
      </trkpt>
      <trkpt lat="49.30847" lon="0.96779">
        <ele>126</ele>
        <time>2018-03-16T03:01:07Z</time>
      </trkpt>
      <trkpt lat="49.30894" lon="0.96693">
        <ele>126</ele>
        <time>2018-03-16T03:02:07Z</time>
      </trkpt>
      <trkpt lat="49.31022" lon="0.96461">
        <ele>122</ele>
        <time>2018-03-16T03:03:07Z</time>
      </trkpt>
      <trkpt lat="49.31074" lon="0.96234">
        <ele>115</ele>
        <time>2018-03-16T03:04:07Z</time>
      </trkpt>
      <trkpt lat="49.3113" lon="0.96257">
        <ele>117</ele>
        <time>2018-03-16T03:05:07Z</time>
      </trkpt>
      <trkpt lat="49.31183" lon="0.96337">
        <ele>118</ele>
        <time>2018-03-16T03:06:07Z</time>
      </trkpt>
      <trkpt lat="49.31257" lon="0.96249">
        <ele>123</ele>
        <time>2018-03-16T03:07:07Z</time>
      </trkpt>
      <trkpt lat="49.31306" lon="0.96103">
        <ele>126</ele>
        <time>2018-03-16T03:08:07Z</time>
      </trkpt>
      <trkpt lat="49.31315" lon="0.96034">
        <ele>126</ele>
        <time>2018-03-16T03:09:07Z</time>
      </trkpt>
      <trkpt lat="49.31326" lon="0.95989">
        <ele>127</ele>
        <time>2018-03-16T03:10:07Z</time>
      </trkpt>
      <trkpt lat="49.31329" lon="0.95927">
        <ele>128</ele>
        <time>2018-03-16T03:11:07Z</time>
      </trkpt>
      <trkpt lat="49.31311" lon="0.95858">
        <ele>129</ele>
        <time>2018-03-16T03:12:07Z</time>
      </trkpt>
      <trkpt lat="49.31287" lon="0.95809">
        <ele>130</ele>
        <time>2018-03-16T03:13:07Z</time>
      </trkpt>
      <trkpt lat="49.31242" lon="0.95794">
        <ele>129</ele>
        <time>2018-03-16T03:14:07Z</time>
      </trkpt>
      <trkpt lat="49.31179" lon="0.95772">
        <ele>126</ele>
        <time>2018-03-16T03:15:07Z</time>
      </trkpt>
      <trkpt lat="49.31243" lon="0.95395">
        <ele>131</ele>
        <time>2018-03-16T03:16:07Z</time>
      </trkpt>
      <trkpt lat="49.31159" lon="0.9485">
        <ele>128</ele>
        <time>2018-03-16T03:17:07Z</time>
      </trkpt>
      <trkpt lat="49.31112" lon="0.94356">
        <ele>118</ele>
        <time>2018-03-16T03:18:07Z</time>
      </trkpt>
      <trkpt lat="49.31085" lon="0.94365">
        <ele>117</ele>
        <time>2018-03-16T03:19:07Z</time>
      </trkpt>
      <trkpt lat="49.31048" lon="0.94363">
        <ele>117</ele>
        <time>2018-03-16T03:20:07Z</time>
      </trkpt>
      <trkpt lat="49.31" lon="0.94367">
        <ele>117</ele>
        <time>2018-03-16T03:21:07Z</time>
      </trkpt>
      <trkpt lat="49.30933" lon="0.94388">
        <ele>118</ele>
        <time>2018-03-16T03:22:07Z</time>
      </trkpt>
      <trkpt lat="49.30937" lon="0.9433">
        <ele>119</ele>
        <time>2018-03-16T03:23:07Z</time>
      </trkpt>
      <trkpt lat="49.30937" lon="0.94272">
        <ele>119</ele>
        <time>2018-03-16T03:24:07Z</time>
      </trkpt>
      <trkpt lat="49.30906" lon="0.93875">
        <ele>123</ele>
        <time>2018-03-16T03:25:07Z</time>
      </trkpt>
    </trkseg>
  </trk>
</gpx>